createdAt,value
2018-01-19T00:01:30.998Z,2.13
2018-01-19T00:02:31.011Z,2.15
2018-01-19T00:04:24.021Z,2.17
2018-01-19T00:05:24.038Z,2.15
2018-01-19T00:07:17.019Z,2.24
2018-01-19T00:08:17.072Z,2.24
2018-01-19T00:10:10.093Z,2.24
2018-01-19T00:11:10.095Z,2.24
2018-01-19T00:13:03.068Z,2.32
2018-01-19T00:14:03.122Z,2.33
2018-01-19T00:15:56.127Z,2.28
2018-01-19T00:16:56.163Z,2.28
2018-01-19T00:18:49.121Z,2.17
2018-01-19T00:19:49.174Z,2.13
2018-01-19T00:21:42.169Z,2.10
2018-01-19T00:22:42.202Z,2.06
2018-01-19T00:24:35.229Z,2.04
2018-01-19T00:25:35.228Z,1.92
2018-01-19T00:27:28.199Z,1.89
2018-01-19T00:28:28.269Z,1.88
2018-01-19T00:30:21.265Z,1.85
2018-01-19T00:31:21.282Z,1.76
2018-01-19T00:33:14.266Z,1.84
2018-01-19T00:34:14.321Z,1.77
2018-01-19T00:36:07.303Z,1.78
2018-01-19T00:37:07.337Z,1.73
2018-01-19T00:39:00.341Z,1.71
2018-01-19T00:40:00.371Z,1.77
2018-01-19T00:41:53.362Z,1.71
2018-01-19T00:42:53.397Z,1.68
2018-01-19T00:44:46.391Z,1.70
2018-01-19T00:45:46.423Z,1.76
2018-01-19T00:47:39.394Z,1.76
2018-01-19T00:48:39.474Z,1.81
2018-01-19T00:50:32.443Z,1.89
2018-01-19T00:51:32.485Z,1.99
2018-01-19T00:53:25.449Z,1.87
2018-01-19T00:54:25.503Z,1.77
2018-01-19T00:56:18.505Z,1.81
2018-01-19T00:57:18.540Z,1.73
2018-01-19T00:59:11.512Z,1.76
2018-01-19T01:00:11.565Z,1.77
2018-01-19T01:02:04.557Z,1.76
2018-01-19T01:03:04.593Z,1.74
2018-01-19T01:04:57.633Z,1.85
2018-01-19T01:05:57.617Z,1.78
2018-01-19T01:07:50.615Z,1.85
2018-01-19T01:08:50.649Z,1.85
2018-01-19T01:10:43.658Z,1.91
2018-01-19T01:11:43.674Z,1.88
2018-01-19T01:13:37.154Z,1.94
2018-01-19T01:14:37.204Z,1.95
2018-01-19T01:16:30.205Z,2.02
2018-01-19T01:17:30.246Z,2.06
2018-01-19T01:19:23.208Z,2.08
2018-01-19T01:20:23.264Z,2.08
2018-01-19T01:22:16.258Z,1.91
2018-01-19T01:23:16.289Z,1.92
2018-01-19T01:25:09.283Z,1.92
2018-01-19T01:26:09.329Z,1.94
2018-01-19T01:28:02.300Z,2.07
2018-01-19T01:29:02.343Z,1.99
2018-01-19T01:30:55.337Z,2.06
2018-01-19T01:31:55.370Z,2.10
2018-01-19T01:33:48.355Z,2.07
2018-01-19T01:34:48.416Z,2.10
2018-01-19T01:36:41.391Z,2.14
2018-01-19T01:37:41.436Z,2.18
2018-01-19T01:39:34.398Z,2.20
2018-01-19T01:40:34.452Z,2.24
2018-01-19T01:42:27.452Z,2.26
2018-01-19T01:43:27.480Z,2.20
2018-01-19T01:45:20.509Z,2.26
2018-01-19T01:46:20.508Z,2.22
2018-01-19T01:48:13.490Z,2.26
2018-01-19T01:49:13.543Z,2.25
2018-01-19T01:51:06.549Z,2.26
2018-01-19T01:52:06.568Z,2.33
2018-01-19T01:53:59.543Z,2.31
2018-01-19T01:54:59.593Z,2.29
2018-01-19T01:56:52.590Z,2.42
2018-01-19T01:57:52.632Z,2.38
2018-01-19T01:59:45.596Z,2.33
2018-01-19T02:00:45.671Z,2.39
2018-01-19T02:02:38.644Z,2.44
2018-01-19T02:03:38.700Z,2.31
2018-01-19T02:05:31.677Z,2.38
2018-01-19T02:06:31.711Z,2.47
2018-01-19T02:08:24.685Z,2.36
2018-01-19T02:09:24.741Z,2.42
2018-01-19T02:11:17.732Z,2.49
2018-01-19T02:12:17.765Z,2.54
2018-01-19T02:14:11.252Z,2.53
2018-01-19T02:15:11.299Z,2.54
2018-01-19T02:17:04.290Z,2.53
2018-01-19T02:18:04.326Z,2.54
2018-01-19T02:19:57.306Z,2.62
2018-01-19T02:20:57.357Z,2.61
2018-01-19T02:22:50.356Z,2.67
2018-01-19T02:23:50.390Z,2.56
2018-01-19T02:25:43.390Z,2.64
2018-01-19T02:26:43.423Z,2.68
2018-01-19T02:28:36.400Z,2.69
2018-01-19T02:29:36.470Z,2.62
2018-01-19T02:31:29.452Z,2.60
2018-01-19T02:32:29.483Z,2.68
2018-01-19T02:34:22.458Z,2.71
2018-01-19T02:35:22.529Z,2.69
2018-01-19T02:37:15.505Z,2.79
2018-01-19T02:38:15.538Z,2.79
2018-01-19T02:40:08.519Z,2.85
2018-01-19T02:41:08.582Z,2.83
2018-01-19T02:43:01.566Z,2.93
2018-01-19T02:44:01.601Z,2.92
2018-01-19T02:45:54.597Z,2.92
2018-01-19T02:46:54.629Z,3.00
2018-01-19T02:48:47.603Z,3.03
2018-01-19T02:49:47.656Z,3.07
2018-01-19T02:51:40.649Z,3.07
2018-01-19T02:52:40.687Z,3.07
2018-01-19T02:54:33.669Z,3.10
2018-01-19T02:55:33.714Z,3.19
2018-01-19T02:57:26.710Z,3.18
2018-01-19T02:58:26.744Z,3.22
2018-01-19T03:00:19.718Z,3.18
2018-01-19T03:01:19.773Z,3.21
2018-01-19T03:03:12.773Z,3.37
2018-01-19T03:04:12.816Z,3.40
2018-01-19T03:06:05.801Z,3.31
2018-01-19T03:07:05.833Z,3.34
2018-01-19T03:08:58.807Z,3.31
2018-01-19T03:09:58.861Z,3.40
2018-01-19T03:11:51.871Z,3.40
2018-01-19T03:12:51.908Z,3.37
2018-01-19T03:14:44.885Z,3.32
2018-01-19T03:15:44.941Z,3.18
2018-01-19T03:17:37.931Z,3.14
2018-01-19T03:18:37.969Z,3.18
2018-01-19T03:20:30.941Z,3.11
2018-01-19T03:21:30.996Z,3.08
2018-01-19T03:23:23.987Z,3.10
2018-01-19T03:24:24.023Z,3.16
2018-01-19T03:26:17.015Z,3.11
2018-01-19T03:27:17.048Z,3.00
2018-01-19T03:29:10.030Z,3.04
2018-01-19T03:30:10.093Z,2.92
2018-01-19T03:32:03.078Z,2.92
2018-01-19T03:33:03.112Z,2.93
2018-01-19T03:34:56.087Z,2.93
2018-01-19T03:35:56.142Z,2.86
2018-01-19T03:37:49.157Z,2.85
2018-01-19T03:38:49.170Z,2.79
2018-01-19T03:40:42.156Z,2.75
2018-01-19T03:41:42.210Z,2.80
2018-01-19T03:43:35.210Z,2.64
2018-01-19T03:44:35.246Z,2.72
2018-01-19T03:46:28.239Z,2.64
2018-01-19T03:47:28.272Z,2.68
2018-01-19T03:49:21.251Z,2.67
2018-01-19T03:50:21.300Z,2.60
2018-01-19T03:52:14.330Z,2.60
2018-01-19T03:53:14.325Z,2.67
2018-01-19T03:55:07.298Z,2.56
2018-01-19T03:56:07.363Z,2.51
2018-01-19T03:58:00.351Z,2.57
2018-01-19T03:59:00.385Z,2.53
2018-01-19T04:00:53.359Z,2.51
2018-01-19T04:01:53.405Z,2.51
2018-01-19T04:03:46.398Z,2.64
2018-01-19T04:04:46.434Z,2.51
2018-01-19T04:06:39.433Z,2.60
2018-01-19T04:07:39.469Z,2.49
2018-01-19T04:09:32.453Z,2.67
2018-01-19T04:10:32.493Z,2.57
2018-01-19T04:12:25.487Z,2.72
2018-01-19T04:13:25.522Z,2.57
2018-01-19T04:15:18.501Z,2.53
2018-01-19T04:16:18.559Z,2.67
2018-01-19T04:18:12.062Z,2.53
2018-01-19T04:19:12.086Z,2.54
2018-01-19T04:21:05.061Z,2.67
2018-01-19T04:22:05.115Z,2.67
2018-01-19T04:23:58.112Z,2.60
2018-01-19T04:24:58.165Z,2.68
2018-01-19T04:26:51.167Z,2.65
2018-01-19T04:27:51.175Z,2.65
2018-01-19T04:29:44.151Z,2.65
2018-01-19T04:30:44.222Z,2.60
2018-01-19T04:32:37.201Z,2.62
2018-01-19T04:33:37.240Z,2.61
2018-01-19T04:35:30.210Z,2.71
2018-01-19T04:36:30.258Z,2.72
2018-01-19T04:38:23.258Z,2.71
2018-01-19T04:39:23.317Z,2.67
2018-01-19T04:41:16.777Z,2.69
2018-01-19T04:42:16.831Z,2.72
2018-01-19T04:44:09.817Z,2.72
2018-01-19T04:45:09.857Z,2.72
2018-01-19T04:47:02.842Z,2.65
2018-01-19T04:48:02.913Z,2.71
2018-01-19T04:49:55.859Z,2.67
2018-01-19T04:50:55.924Z,2.67
2018-01-19T04:52:48.909Z,2.69
2018-01-19T04:53:48.963Z,2.67
2018-01-19T04:55:41.932Z,2.67
2018-01-19T04:56:41.984Z,2.67
2018-01-19T04:58:34.975Z,2.68
2018-01-19T04:59:35.029Z,2.68
2018-01-19T05:01:27.990Z,2.71
2018-01-19T05:02:28.059Z,2.72
2018-01-19T05:04:21.038Z,2.67
2018-01-19T05:05:21.090Z,2.67
2018-01-19T05:07:14.065Z,2.68
2018-01-19T05:08:14.107Z,2.67
2018-01-19T05:10:07.074Z,2.69
2018-01-19T05:11:07.157Z,2.68
2018-01-19T05:13:00.124Z,2.69
2018-01-19T05:14:00.186Z,2.67
2018-01-19T05:15:53.132Z,2.69
2018-01-19T05:16:53.185Z,2.68
2018-01-19T05:18:46.182Z,2.67
2018-01-19T05:19:46.211Z,2.72
2018-01-19T05:21:39.188Z,2.67
2018-01-19T05:22:39.240Z,2.68
2018-01-19T05:24:32.232Z,2.65
2018-01-19T05:25:32.266Z,2.64
2018-01-19T05:27:25.262Z,2.68
2018-01-19T05:28:25.297Z,2.67
2018-01-19T05:30:18.287Z,2.68
2018-01-19T05:31:18.332Z,2.65
2018-01-19T05:33:11.322Z,2.60
2018-01-19T05:34:11.378Z,2.64
2018-01-19T05:36:04.429Z,2.68
2018-01-19T05:37:04.421Z,2.65
2018-01-19T05:38:57.402Z,2.80
2018-01-19T05:39:57.466Z,2.82
2018-01-19T05:41:50.906Z,2.72
2018-01-19T05:42:51.010Z,2.77
2018-01-19T05:44:44.447Z,2.77
2018-01-19T05:45:44.503Z,2.80
2018-01-19T05:47:37.480Z,2.79
2018-01-19T05:48:37.515Z,2.77
2018-01-19T05:50:30.495Z,2.82
2018-01-19T05:51:30.548Z,2.74
2018-01-19T05:53:23.541Z,2.77
2018-01-19T05:54:23.584Z,2.79
2018-01-19T05:56:16.563Z,2.86
2018-01-19T05:57:16.630Z,2.82
2018-01-19T05:59:09.624Z,2.87
2018-01-19T06:00:09.642Z,2.86
2018-01-19T06:02:02.625Z,2.90
2018-01-19T06:03:02.670Z,2.85
2018-01-19T06:04:55.692Z,2.86
2018-01-19T06:05:55.697Z,2.87
2018-01-19T06:07:48.791Z,2.90
2018-01-19T06:08:48.736Z,2.89
2018-01-19T06:10:41.785Z,2.95
2018-01-19T06:11:41.875Z,2.87
2018-01-19T06:13:34.811Z,2.92
2018-01-19T06:14:34.811Z,2.90
2018-01-19T06:16:27.876Z,2.98
2018-01-19T06:17:27.885Z,2.93
2018-01-19T06:19:20.892Z,2.95
2018-01-19T06:20:20.931Z,2.83
2018-01-19T06:22:13.948Z,2.93
2018-01-19T06:23:13.940Z,2.97
2018-01-19T06:25:06.942Z,2.97
2018-01-19T06:26:07.036Z,2.95
2018-01-19T06:27:59.960Z,2.93
2018-01-19T06:29:00.074Z,2.98
2018-01-19T06:30:52.957Z,2.92
2018-01-19T06:31:53.065Z,2.93
2018-01-19T06:33:46.010Z,3.03
2018-01-19T06:34:46.166Z,2.97
2018-01-19T06:36:39.039Z,3.04
2018-01-19T06:37:39.075Z,3.01
2018-01-19T06:39:32.112Z,3.03
2018-01-19T06:40:32.117Z,3.03
2018-01-19T06:42:25.100Z,3.01
2018-01-19T06:43:25.178Z,3.03
2018-01-19T06:45:18.164Z,3.01
2018-01-19T06:46:18.173Z,3.04
2018-01-19T06:48:11.185Z,3.05
2018-01-19T06:49:11.238Z,3.11
2018-01-19T06:51:04.204Z,3.07
2018-01-19T06:52:04.228Z,3.05
2018-01-19T06:53:57.238Z,3.14
2018-01-19T06:54:57.381Z,3.10
2018-01-19T06:56:50.276Z,3.08
2018-01-19T06:57:50.319Z,3.05
2018-01-19T06:59:43.420Z,3.07
2018-01-19T07:00:44.495Z,3.08
2018-01-19T07:02:36.408Z,3.21
2018-01-19T07:03:36.399Z,3.18
2018-01-19T07:05:29.422Z,3.11
2018-01-19T07:06:29.415Z,3.26
2018-01-19T07:08:22.488Z,3.21
2018-01-19T07:09:22.480Z,3.13
2018-01-19T07:11:15.528Z,3.16
2018-01-19T07:12:15.531Z,3.16
2018-01-19T07:14:08.508Z,3.18
2018-01-19T07:15:08.602Z,3.21
2018-01-19T07:17:02.112Z,3.23
2018-01-19T07:18:02.107Z,3.22
2018-01-19T07:19:55.084Z,3.21
2018-01-19T07:20:55.142Z,3.22
2018-01-19T07:22:48.078Z,3.25
2018-01-19T07:23:48.182Z,3.18
2018-01-19T07:25:41.161Z,3.14
2018-01-19T07:26:41.172Z,3.22
2018-01-19T07:28:34.330Z,3.18
2018-01-19T07:29:34.207Z,3.14
2018-01-19T07:31:27.223Z,3.08
2018-01-19T07:32:27.238Z,3.13
2018-01-19T07:34:20.227Z,3.05
2018-01-19T07:35:20.476Z,2.90
2018-01-19T07:37:13.301Z,2.92
2018-01-19T07:38:13.431Z,2.85
2018-01-19T07:40:06.281Z,2.87
2018-01-19T07:41:06.362Z,2.85
2018-01-19T07:42:59.328Z,2.85
2018-01-19T07:43:59.338Z,2.74
2018-01-19T07:45:52.346Z,2.79
2018-01-19T07:46:52.382Z,2.77
2018-01-19T07:48:45.360Z,2.80
2018-01-19T07:49:45.465Z,2.85
2018-01-19T07:51:38.438Z,2.82
2018-01-19T07:52:38.482Z,2.90
2018-01-19T07:54:31.445Z,2.90
2018-01-19T07:55:31.509Z,2.86
2018-01-19T07:57:24.480Z,2.95
2018-01-19T07:58:24.507Z,2.95
2018-01-19T08:00:17.508Z,2.87
2018-01-19T08:01:17.557Z,2.95
2018-01-19T08:03:10.514Z,3.01
2018-01-19T08:04:10.784Z,3.03
2018-01-19T08:06:03.604Z,3.11
2018-01-19T08:07:03.695Z,3.04
2018-01-19T08:08:56.640Z,3.14
2018-01-19T08:09:56.695Z,3.22
2018-01-19T08:11:49.622Z,3.14
2018-01-19T08:12:49.707Z,3.18
2018-01-19T08:14:42.699Z,3.19
2018-01-19T08:15:42.728Z,3.22
2018-01-19T08:17:36.371Z,3.28
2018-01-19T08:18:36.370Z,3.29
2018-01-19T08:20:29.262Z,3.32
2018-01-19T08:21:29.324Z,3.36
2018-01-19T08:23:22.293Z,3.28
2018-01-19T08:24:22.401Z,3.42
2018-01-19T08:26:15.390Z,3.42
2018-01-19T08:27:15.359Z,3.44
2018-01-19T08:29:08.390Z,3.47
2018-01-19T08:30:08.461Z,3.58
2018-01-19T08:32:01.433Z,3.50
2018-01-19T08:33:01.500Z,3.59
2018-01-19T08:34:54.513Z,3.55
2018-01-19T08:35:54.560Z,3.58
2018-01-19T08:37:47.529Z,3.53
2018-01-19T08:38:47.542Z,3.56
2018-01-19T08:40:40.597Z,3.62
2018-01-19T08:41:40.589Z,3.68
2018-01-19T08:43:33.553Z,3.66
2018-01-19T08:44:33.672Z,3.68
2018-01-19T08:46:26.602Z,3.69
2018-01-19T08:47:26.625Z,3.60
2018-01-19T08:49:19.634Z,3.73
2018-01-19T08:50:19.705Z,3.74
2018-01-19T08:52:12.664Z,3.83
2018-01-19T08:53:12.728Z,3.77
2018-01-19T08:55:05.687Z,3.94
2018-01-19T08:56:05.749Z,4.02
2018-01-19T08:57:58.726Z,4.02
2018-01-19T08:58:58.805Z,3.94
2018-01-19T09:00:51.759Z,4.01
2018-01-19T09:01:51.785Z,4.01
2018-01-19T09:03:44.795Z,3.99
2018-01-19T09:04:44.816Z,4.08
2018-01-19T09:06:37.904Z,4.04
2018-01-19T09:07:37.883Z,4.06
2018-01-19T09:09:30.853Z,4.08
2018-01-19T09:10:30.940Z,4.10
2018-01-19T09:12:23.854Z,4.04
2018-01-19T09:13:23.918Z,4.14
2018-01-19T09:15:17.013Z,4.17
2018-01-19T09:16:16.947Z,4.14
2018-01-19T09:18:09.924Z,4.16
2018-01-19T09:19:10.039Z,4.20
2018-01-19T09:21:03.142Z,4.10
2018-01-19T09:22:03.024Z,4.17
2018-01-19T09:23:56.028Z,4.17
2018-01-19T09:24:56.034Z,4.17
2018-01-19T09:26:49.103Z,4.31
2018-01-19T09:27:49.077Z,4.24
2018-01-19T09:29:42.069Z,4.26
2018-01-19T09:30:42.110Z,4.37
2018-01-19T09:32:35.183Z,4.37
2018-01-19T09:33:35.182Z,4.31
2018-01-19T09:35:28.135Z,4.34
2018-01-19T09:36:28.313Z,4.31
2018-01-19T09:38:21.159Z,4.38
2018-01-19T09:39:21.283Z,4.45
2018-01-19T09:41:14.183Z,4.42
2018-01-19T09:42:14.260Z,4.50
2018-01-19T09:44:07.310Z,4.53
2018-01-19T09:45:07.273Z,4.53
2018-01-19T09:47:00.248Z,4.56
2018-01-19T09:48:00.363Z,4.59
2018-01-19T09:49:53.296Z,4.66
2018-01-19T09:50:53.382Z,4.62
2018-01-19T09:52:46.339Z,4.56
2018-01-19T09:53:46.339Z,4.59
2018-01-19T09:55:39.332Z,4.59
2018-01-19T09:56:39.409Z,4.63
2018-01-19T09:58:32.350Z,4.71
2018-01-19T09:59:32.572Z,4.75
2018-01-19T10:01:25.403Z,4.70
2018-01-19T10:02:25.428Z,4.74
2018-01-19T10:04:18.440Z,4.73
2018-01-19T10:05:18.491Z,4.80
2018-01-19T10:07:11.464Z,4.73
2018-01-19T10:08:11.562Z,4.80
2018-01-19T10:10:04.516Z,4.89
2018-01-19T10:11:04.558Z,4.90
2018-01-19T10:12:57.598Z,5.05
2018-01-19T10:13:57.578Z,5.28
2018-01-19T10:15:50.572Z,5.36
2018-01-19T10:16:50.657Z,5.21
2018-01-19T10:18:43.770Z,5.05
2018-01-19T10:19:43.663Z,5.04
2018-01-19T10:21:36.653Z,5.15
2018-01-19T10:22:36.716Z,5.14
2018-01-19T10:24:29.839Z,5.17
2018-01-19T10:25:29.785Z,5.15
2018-01-19T10:27:22.707Z,5.12
2018-01-19T10:28:22.776Z,5.14
2018-01-19T10:30:15.753Z,5.11
2018-01-19T10:31:15.825Z,5.04
2018-01-19T10:33:08.763Z,5.15
2018-01-19T10:34:08.806Z,5.12
2018-01-19T10:36:01.850Z,5.10
2018-01-19T10:37:01.869Z,5.04
2018-01-19T10:38:54.992Z,5.02
2018-01-19T10:39:54.922Z,5.08
2018-01-19T10:41:47.978Z,5.08
2018-01-19T10:42:47.971Z,5.17
2018-01-19T10:44:40.931Z,5.15
2018-01-19T10:45:41.061Z,5.17
2018-01-19T10:47:33.971Z,5.18
2018-01-19T10:48:34.102Z,5.21
2018-01-19T10:50:27.080Z,5.25
2018-01-19T10:51:27.057Z,5.33
2018-01-19T10:53:20.024Z,5.59
2018-01-19T10:54:20.137Z,5.66
2018-01-19T10:56:13.200Z,5.89
2018-01-19T10:57:13.113Z,5.82
2018-01-19T10:59:06.164Z,5.82
2018-01-19T11:00:06.182Z,5.71
2018-01-19T11:01:59.188Z,5.65
2018-01-19T11:02:59.285Z,5.66
2018-01-19T11:04:52.161Z,5.75
2018-01-19T11:05:52.248Z,5.66
2018-01-19T11:07:45.242Z,5.53
2018-01-19T11:08:45.243Z,5.68
2018-01-19T11:10:38.299Z,5.59
2018-01-19T11:11:38.357Z,5.64
2018-01-19T11:13:31.297Z,5.73
2018-01-19T11:14:31.311Z,5.87
2018-01-19T11:16:24.322Z,5.91
2018-01-19T11:17:24.392Z,6.09
2018-01-19T11:19:17.396Z,6.24
2018-01-19T11:20:17.372Z,6.14
2018-01-19T11:22:10.480Z,5.90
2018-01-19T11:23:10.402Z,5.97
2018-01-19T11:25:03.412Z,5.80
2018-01-19T11:26:03.447Z,5.89
2018-01-19T11:27:56.466Z,5.86
2018-01-19T11:28:56.505Z,5.91
2018-01-19T11:30:49.531Z,5.98
2018-01-19T11:31:49.538Z,6.02
2018-01-19T11:33:43.086Z,6.01
2018-01-19T11:34:43.092Z,6.09
2018-01-19T11:36:36.080Z,5.99
2018-01-19T11:37:36.194Z,5.94
2018-01-19T11:39:29.181Z,6.33
2018-01-19T11:40:29.147Z,6.33
2018-01-19T11:42:22.240Z,6.48
2018-01-19T11:43:22.222Z,6.57
2018-01-19T11:45:15.221Z,6.72
2018-01-19T11:46:15.240Z,6.66
2018-01-19T11:48:08.247Z,6.56
2018-01-19T11:49:08.448Z,6.57
2018-01-19T11:51:01.395Z,6.49
2018-01-19T11:52:01.322Z,6.56
2018-01-19T11:53:54.363Z,6.59
2018-01-19T11:54:54.400Z,6.64
2018-01-19T11:56:47.415Z,6.78
2018-01-19T11:57:47.394Z,6.78
2018-01-19T11:59:40.388Z,6.60
2018-01-19T12:00:40.568Z,6.52
2018-01-19T12:02:33.456Z,6.56
2018-01-19T12:03:33.589Z,6.46
2018-01-19T12:05:26.473Z,6.54
2018-01-19T12:06:26.594Z,6.60
2018-01-19T12:08:19.550Z,6.52
2018-01-19T12:09:19.593Z,6.59
2018-01-19T12:11:12.590Z,6.56
2018-01-19T12:12:12.674Z,6.41
2018-01-19T12:14:05.598Z,6.51
2018-01-19T12:15:05.706Z,6.45
2018-01-19T12:16:58.629Z,6.56
2018-01-19T12:17:58.763Z,6.44
2018-01-19T12:19:51.714Z,6.33
2018-01-19T12:20:51.752Z,6.30
2018-01-19T12:22:44.724Z,6.41
2018-01-19T12:23:45.729Z,6.57
2018-01-19T12:25:38.376Z,6.77
2018-01-19T12:26:38.054Z,6.74
2018-01-19T12:28:31.245Z,6.79
2018-01-19T12:29:30.873Z,6.79
2018-01-19T12:31:24.369Z,6.85
2018-01-19T12:32:24.402Z,6.84
2018-01-19T12:34:17.533Z,6.87
2018-01-19T12:35:17.456Z,6.88
2018-01-19T12:37:10.464Z,6.84
2018-01-19T12:38:10.473Z,6.93
2018-01-19T12:40:03.451Z,6.95
2018-01-19T12:41:03.681Z,6.93
2018-01-19T12:42:56.497Z,6.78
2018-01-19T12:43:56.534Z,6.74
2018-01-19T12:45:49.523Z,6.54
2018-01-19T12:46:49.574Z,6.57
2018-01-19T12:48:42.572Z,6.74
2018-01-19T12:49:42.607Z,6.82
2018-01-19T12:51:35.609Z,6.84
2018-01-19T12:52:35.673Z,6.88
2018-01-19T12:54:28.806Z,6.87
2018-01-19T12:55:28.717Z,6.81
2018-01-19T12:57:21.739Z,6.78
2018-01-19T12:58:21.727Z,6.87
2018-01-19T13:00:14.755Z,6.87
2018-01-19T13:01:14.915Z,6.88
2018-01-19T13:03:07.904Z,6.93
2018-01-19T13:04:08.011Z,6.89
2018-01-19T13:06:00.933Z,6.99
2018-01-19T13:07:00.987Z,6.99
2018-01-19T13:08:53.920Z,6.99
2018-01-19T13:09:53.967Z,7.02
2018-01-19T13:11:46.948Z,6.97
2018-01-19T13:12:46.970Z,6.85
2018-01-19T13:14:39.948Z,7.05
2018-01-19T13:15:40.004Z,7.02
2018-01-19T13:17:33.009Z,6.88
2018-01-19T13:18:33.044Z,6.66
2018-01-19T13:20:26.020Z,6.64
2018-01-19T13:21:26.078Z,6.57
2018-01-19T13:23:19.077Z,6.56
2018-01-19T13:24:19.112Z,6.48
2018-01-19T13:26:12.143Z,6.54
2018-01-19T13:27:12.184Z,6.54
2018-01-19T13:29:05.232Z,6.67
2018-01-19T13:30:05.192Z,6.59
2018-01-19T13:31:58.714Z,6.62
2018-01-19T13:32:58.730Z,6.60
2018-01-19T13:34:51.706Z,6.57
2018-01-19T13:35:51.768Z,6.54
2018-01-19T13:37:44.764Z,6.42
2018-01-19T13:38:44.802Z,6.48
2018-01-19T13:40:38.303Z,6.35
2018-01-19T13:41:38.357Z,6.26
2018-01-19T13:43:31.355Z,6.26
2018-01-19T13:44:31.393Z,6.26
2018-01-19T13:46:24.371Z,6.20
2018-01-19T13:47:24.424Z,6.12
2018-01-19T13:49:17.454Z,6.24
2018-01-19T13:50:17.473Z,6.28
2018-01-19T13:52:10.471Z,6.28
2018-01-19T13:53:10.506Z,6.28
2018-01-19T13:55:03.488Z,6.31
2018-01-19T13:56:03.546Z,6.35
2018-01-19T13:57:56.549Z,6.42
2018-01-19T13:58:56.578Z,6.45
2018-01-19T14:00:49.557Z,6.49
2018-01-19T14:01:49.650Z,6.52
2018-01-19T14:03:42.771Z,6.49
2018-01-19T14:04:42.646Z,6.44
2018-01-19T14:06:35.630Z,6.39
2018-01-19T14:07:35.696Z,6.38
2018-01-19T14:09:28.690Z,6.38
2018-01-19T14:10:28.721Z,6.33
2018-01-19T14:12:21.739Z,6.22
2018-01-19T14:13:21.758Z,6.33
2018-01-19T14:15:15.264Z,6.27
2018-01-19T14:16:14.796Z,6.27
2018-01-19T14:18:07.797Z,6.20
2018-01-19T14:19:07.823Z,6.17
2018-01-19T14:21:00.804Z,6.12
2018-01-19T14:22:00.886Z,6.27
2018-01-19T14:23:53.945Z,6.22
2018-01-19T14:24:53.916Z,6.19
2018-01-19T14:26:46.899Z,6.19
2018-01-19T14:27:47.008Z,6.22
2018-01-19T14:29:40.017Z,6.16
2018-01-19T14:30:40.129Z,6.20
2018-01-19T14:32:33.509Z,6.19
2018-01-19T14:33:33.614Z,6.19
2018-01-19T14:35:26.489Z,6.17
2018-01-19T14:36:26.547Z,6.16
2018-01-19T14:38:19.555Z,6.20
2018-01-19T14:39:19.597Z,6.19
2018-01-19T14:41:12.558Z,6.11
2018-01-19T14:42:12.618Z,6.08
2018-01-19T14:44:05.617Z,6.09
2018-01-19T14:45:05.823Z,6.14
2018-01-19T14:46:58.650Z,6.11
2018-01-19T14:47:58.771Z,6.26
2018-01-19T14:49:51.685Z,6.07
2018-01-19T14:50:51.775Z,6.05
2018-01-19T14:52:44.758Z,6.02
2018-01-19T14:53:44.868Z,6.01
2018-01-19T14:55:37.743Z,6.01
2018-01-19T14:56:37.784Z,6.04
2018-01-19T14:58:30.787Z,6.08
2018-01-19T14:59:30.822Z,6.09
2018-01-19T15:01:23.804Z,6.01
2018-01-19T15:02:23.891Z,6.12
2018-01-19T15:04:16.966Z,6.09
2018-01-19T15:05:16.931Z,6.09
2018-01-19T15:07:09.912Z,6.16
2018-01-19T15:08:09.924Z,6.07
2018-01-19T15:10:03.983Z,6.11
2018-01-19T15:11:03.151Z,6.09
2018-01-19T15:12:56.014Z,6.05
2018-01-19T15:13:56.162Z,6.11
2018-01-19T15:15:49.028Z,6.19
2018-01-19T15:16:49.095Z,6.12
2018-01-19T15:18:42.080Z,6.24
2018-01-19T15:19:42.118Z,6.20
2018-01-19T15:21:35.253Z,6.22
2018-01-19T15:22:35.161Z,6.19
2018-01-19T15:24:28.166Z,6.24
2018-01-19T15:25:28.197Z,6.27
2018-01-19T15:27:21.174Z,6.22
2018-01-19T15:28:21.269Z,6.22
2018-01-19T15:30:14.303Z,6.20
2018-01-19T15:31:14.291Z,6.11
2018-01-19T15:33:07.295Z,6.05
2018-01-19T15:34:07.323Z,6.17
2018-01-19T15:36:00.387Z,6.20
2018-01-19T15:37:00.447Z,6.04
2018-01-19T15:38:53.386Z,6.05
2018-01-19T15:39:53.429Z,6.05
2018-01-19T15:41:46.380Z,5.89
2018-01-19T15:42:46.479Z,5.86
2018-01-19T15:44:39.424Z,5.86
2018-01-19T15:45:39.460Z,5.86
2018-01-19T15:47:32.442Z,5.80
2018-01-19T15:48:32.505Z,5.65
2018-01-19T15:50:25.492Z,5.69
2018-01-19T15:51:25.529Z,5.61
2018-01-19T15:53:18.536Z,5.62
2018-01-19T15:54:18.567Z,5.65
2018-01-19T15:56:11.672Z,5.61
2018-01-19T15:57:11.648Z,5.66
2018-01-19T15:59:04.592Z,5.66
2018-01-19T16:00:04.627Z,5.66
2018-01-19T16:01:57.618Z,5.56
2018-01-19T16:02:57.660Z,5.53
2018-01-19T16:04:50.669Z,5.56
2018-01-19T16:05:50.714Z,5.50
2018-01-19T16:07:43.760Z,5.57
2018-01-19T16:08:43.735Z,5.57
2018-01-19T16:10:36.730Z,5.57
2018-01-19T16:11:36.772Z,5.48
2018-01-19T16:13:29.769Z,5.39
2018-01-19T16:14:29.800Z,5.39
2018-01-19T16:16:23.282Z,5.26
2018-01-19T16:17:23.335Z,5.15
2018-01-19T16:19:17.239Z,4.99
2018-01-19T16:20:16.391Z,5.02
2018-01-19T16:22:09.338Z,4.96
2018-01-19T16:23:09.398Z,4.87
2018-01-19T16:25:02.398Z,4.70
2018-01-19T16:26:02.469Z,4.59
2018-01-19T16:27:55.413Z,4.28
2018-01-19T16:28:55.470Z,4.20
2018-01-19T16:30:48.467Z,4.10
2018-01-19T16:31:48.548Z,4.08
2018-01-19T16:33:41.496Z,4.19
2018-01-19T16:34:41.538Z,4.16
2018-01-19T16:36:35.513Z,4.02
2018-01-19T16:37:34.707Z,4.10
2018-01-19T16:39:27.807Z,4.13
2018-01-19T16:40:27.754Z,4.05
2018-01-19T16:42:20.933Z,4.14
2018-01-19T16:43:20.910Z,4.20
2018-01-19T16:45:13.798Z,4.05
2018-01-19T16:46:13.916Z,4.12
2018-01-19T16:48:06.925Z,4.14
2018-01-19T16:49:07.688Z,4.13
2018-01-19T16:51:00.043Z,4.13
2018-01-19T16:52:00.074Z,4.13
2018-01-19T16:53:53.098Z,4.08
2018-01-19T16:54:54.928Z,4.08
2018-01-19T16:56:46.596Z,4.10
2018-01-19T16:57:47.408Z,4.04
2018-01-19T16:59:39.513Z,4.10
2018-01-19T17:00:39.569Z,4.02
2018-01-19T17:02:32.551Z,4.06
2018-01-19T17:03:32.624Z,4.05
2018-01-19T17:05:25.602Z,3.96
2018-01-19T17:06:25.629Z,3.94
2018-01-19T17:08:30.870Z,4.02
2018-01-19T17:09:32.033Z,4.02
2018-01-19T17:11:23.501Z,4.04
2018-01-19T17:12:23.734Z,4.02
2018-01-19T17:14:16.600Z,4.12
2018-01-19T17:15:16.654Z,4.08
2018-01-19T17:17:09.631Z,4.06
2018-01-19T17:18:09.680Z,4.05
2018-01-19T17:20:02.662Z,4.12
2018-01-19T17:21:02.690Z,4.04
2018-01-19T17:22:55.637Z,4.13
2018-01-19T17:23:55.728Z,4.12
2018-01-19T17:25:48.963Z,4.23
2018-01-19T17:26:48.857Z,4.19
2018-01-19T17:28:41.950Z,4.19
2018-01-19T17:29:41.812Z,4.16
2018-01-19T17:31:34.908Z,4.17
2018-01-19T17:32:34.920Z,4.13
2018-01-19T17:34:27.979Z,4.19
2018-01-19T17:35:27.899Z,4.19
2018-01-19T17:37:20.877Z,4.19
2018-01-19T17:38:20.962Z,4.20
2018-01-19T17:40:15.969Z,4.16
2018-01-19T17:41:14.578Z,4.22
2018-01-19T17:43:14.289Z,4.04
2018-01-19T17:44:09.883Z,4.20
2018-01-19T17:46:01.083Z,4.13
2018-01-19T17:47:01.265Z,4.04
2018-01-19T17:48:54.783Z,4.14
2018-01-19T17:49:55.152Z,4.16
2018-01-19T17:51:49.130Z,4.19
2018-01-19T17:52:47.911Z,4.06
2018-01-19T17:54:40.702Z,4.19
2018-01-19T17:55:40.734Z,4.22
2018-01-19T17:57:33.710Z,4.20
2018-01-19T17:58:33.765Z,4.23
2018-01-19T18:00:26.765Z,4.16
2018-01-19T18:01:26.805Z,4.19
2018-01-19T18:03:19.776Z,4.06
2018-01-19T18:04:19.832Z,4.08
2018-01-19T18:06:12.825Z,4.02
2018-01-19T18:07:12.873Z,3.83
2018-01-19T18:09:05.842Z,3.76
2018-01-19T18:10:05.896Z,3.70
2018-01-19T18:11:58.895Z,3.73
2018-01-19T18:12:58.976Z,3.74
2018-01-19T18:14:51.923Z,3.62
2018-01-19T18:15:51.958Z,3.58
2018-01-19T18:17:44.949Z,3.55
2018-01-19T18:18:45.017Z,3.44
2018-01-19T18:20:38.008Z,3.42
2018-01-19T18:21:38.030Z,3.41
2018-01-19T18:23:31.009Z,3.42
2018-01-19T18:24:31.058Z,3.41
2018-01-19T18:26:24.066Z,3.42
2018-01-19T18:27:24.088Z,3.42
2018-01-19T18:29:17.090Z,3.50
2018-01-19T18:30:17.137Z,3.47
2018-01-19T18:32:10.118Z,3.51
2018-01-19T18:33:10.172Z,3.48
2018-01-19T18:35:03.146Z,3.47
2018-01-19T18:36:03.183Z,3.48
2018-01-19T18:37:56.173Z,3.55
2018-01-19T18:38:56.225Z,3.56
2018-01-19T18:40:49.218Z,3.50
2018-01-19T18:41:49.256Z,3.48
2018-01-19T18:43:42.227Z,3.60
2018-01-19T18:44:42.313Z,3.59
2018-01-19T18:46:35.271Z,3.58
2018-01-19T18:47:35.308Z,3.58
2018-01-19T18:49:28.284Z,3.55
2018-01-19T18:50:28.339Z,3.60
2018-01-19T18:52:21.334Z,3.62
2018-01-19T18:53:21.367Z,3.53
2018-01-19T18:55:14.363Z,3.50
2018-01-19T18:56:14.398Z,3.48
2018-01-19T18:58:07.372Z,3.48
2018-01-19T18:59:07.426Z,3.50
2018-01-19T19:01:00.418Z,3.45
2018-01-19T19:02:00.456Z,3.34
2018-01-19T19:03:53.427Z,3.26
2018-01-19T19:04:53.482Z,3.36
2018-01-19T19:06:46.491Z,3.34
2018-01-19T19:07:46.586Z,3.28
2018-01-19T19:09:39.494Z,3.28
2018-01-19T19:10:39.543Z,3.34
2018-01-19T19:12:32.546Z,3.34